Nearby METAR Reports

 

LBGO - Gorna Oryahovista, Bulgaria
Distance from station: NE 50km
Updated: 17/10/2018 19:00
Light rain, Showers, Clear
Light rain, Showers, Clear
 Wind from calm
Wind: Calm
Temperature: 14°C
Dew Point: 11°C
Humidity: 82%
Barometer: 1021 hPa
Summary: Light rain, Showers
Clouds: Clear
Visibility: 10 km
2018/10/17 16:00 LBGO 171600Z AUTO 00000KT 9999 -SHRA NCD 14/11 Q1021